.
Local / Fort Wayne - NE Ind.

U N D E R   C O N S T R U C T I O N

Local Weather
Fort Wayne – NE Indiana

Northern Indiana (IWX) Radar

Latest IWX NEXRAD
Base Reflectivity



Latest IWX NEXRAD
Base Velocity

Indiana-Ohio Visible Satellite

For infrared and water vapor imagery, see Great Lakes - Midwest.

Current Conditions

Recent report from the Fort Wayne International Airport

May 30, 2020 - 12:54 PM EDT / 2020.05.30 1654 UTC


The skies are partly cloudy. The temperature is 70.0 F (21.1 C) and the dew point is 48.0 F (8.9 C), giving a relative humidity of 45%. The barometric pressure is 30.14 in. Hg (1020 hPa). The wind is from the N (360 degrees) at 13 MPH (11 KT) gusting to 21 MPH (18 KT), and the visibility is 10 mile(s).

KFWA 301654Z 36011G18KT 10SM SCT050 21/09 A3014 RMK AO2 SLP204 SCT V BKN T02110089

Local Weather — Contents

Local Weather — Links

CoCoRaHS
IN-AL-39
A2 Web Hosting
Creative Commons License
GoDaddy
search engine by freefind advanced

loaded 2020-05-30 13:50:19 • last modified 2017-02-11 13:27:36
Privacy PolicyDisclaimer
• wx.awcolley.com is powered by PmWiki v.2002016 •
• all content (unless otherwise noted) © 2020 A W Colley